createdAt,value
2023-01-11T00:00:08.595Z,5.94
2023-01-11T00:01:08.713Z,5.93
2023-01-11T00:02:08.672Z,5.97
2023-01-11T00:03:08.583Z,5.93
2023-01-11T00:04:08.529Z,5.85
2023-01-11T00:05:08.820Z,5.94
2023-01-11T00:06:08.677Z,5.94
2023-01-11T00:07:08.513Z,5.90
2023-01-11T00:08:08.726Z,5.98
2023-01-11T00:09:08.577Z,5.87
2023-01-11T00:10:08.518Z,5.91
2023-01-11T00:11:08.473Z,5.82
2023-01-11T00:12:08.553Z,5.94
2023-01-11T00:13:08.491Z,5.91
2023-01-11T00:14:08.691Z,5.90
2023-01-11T00:15:08.420Z,5.84
2023-01-11T00:16:08.825Z,5.88
2023-01-11T00:17:08.619Z,5.90
2023-01-11T00:18:08.423Z,5.88
2023-01-11T00:19:08.488Z,5.84
2023-01-11T00:20:08.412Z,5.85
2023-01-11T00:21:08.439Z,5.82
2023-01-11T00:22:08.595Z,5.84
2023-01-11T00:23:08.524Z,5.84
2023-01-11T00:24:08.534Z,5.82
2023-01-11T00:25:08.347Z,5.84
2023-01-11T00:26:08.599Z,5.77
2023-01-11T00:27:08.372Z,5.84
2023-01-11T00:28:08.458Z,5.75
2023-01-11T00:29:08.899Z,5.70
2023-01-11T00:30:08.526Z,5.76
2023-01-11T00:31:08.911Z,5.73
2023-01-11T00:32:08.344Z,5.69
2023-01-11T00:33:08.330Z,5.75
2023-01-11T00:34:08.351Z,5.65
2023-01-11T00:35:08.418Z,5.73
2023-01-11T00:36:08.396Z,5.76
2023-01-11T00:37:08.308Z,5.84
2023-01-11T00:38:08.425Z,5.82
2023-01-11T00:39:08.621Z,5.76
2023-01-11T00:40:08.384Z,5.65
2023-01-11T00:41:08.267Z,5.76
2023-01-11T00:42:08.291Z,5.84
2023-01-11T00:43:08.791Z,5.76
2023-01-11T00:44:08.322Z,5.72
2023-01-11T00:45:08.729Z,5.79
2023-01-11T00:46:08.476Z,5.88
2023-01-11T00:47:08.314Z,5.90
2023-01-11T00:48:08.290Z,5.82
2023-01-11T00:49:08.256Z,5.84
2023-01-11T00:50:08.205Z,5.76
2023-01-11T00:51:08.221Z,5.84
2023-01-11T00:52:08.275Z,5.88
2023-01-11T00:53:08.314Z,5.82
2023-01-11T00:54:08.300Z,5.82
2023-01-11T00:55:08.239Z,5.84
2023-01-11T00:56:08.452Z,5.90
2023-01-11T00:57:08.597Z,5.88
2023-01-11T00:58:08.176Z,5.76
2023-01-11T00:59:08.377Z,5.91
2023-01-11T01:00:08.181Z,5.97
2023-01-11T01:01:08.271Z,5.91
2023-01-11T01:02:08.408Z,5.82
2023-01-11T01:03:08.144Z,5.95
2023-01-11T01:04:08.322Z,5.88
2023-01-11T01:05:08.132Z,6.00
2023-01-11T01:06:08.143Z,5.87
2023-01-11T01:07:08.560Z,5.95
2023-01-11T01:08:08.208Z,5.97
2023-01-11T01:09:08.534Z,5.95
2023-01-11T01:10:08.143Z,5.88
2023-01-11T01:11:08.093Z,6.02
2023-01-11T01:12:08.123Z,5.97
2023-01-11T01:13:08.440Z,5.94
2023-01-11T01:14:08.081Z,5.94
2023-01-11T01:15:08.031Z,5.97
2023-01-11T01:16:08.284Z,6.02
2023-01-11T01:17:08.068Z,6.00
2023-01-11T01:18:08.303Z,6.02
2023-01-11T01:19:08.183Z,5.97
2023-01-11T01:20:08.017Z,5.97
2023-01-11T01:21:08.110Z,6.08
2023-01-11T01:22:08.646Z,6.08
2023-01-11T01:23:08.365Z,6.02
2023-01-11T01:24:08.027Z,6.09
2023-01-11T01:25:08.036Z,6.13
2023-01-11T01:26:08.001Z,6.12
2023-01-11T01:27:08.013Z,6.16
2023-01-11T01:28:08.208Z,6.15
2023-01-11T01:29:08.022Z,6.21
2023-01-11T01:30:07.956Z,6.19
2023-01-11T01:31:08.100Z,6.24
2023-01-11T01:32:07.933Z,6.13
2023-01-11T01:33:07.977Z,6.16
2023-01-11T01:34:07.939Z,6.30
2023-01-11T01:35:08.050Z,6.09
2023-01-11T01:36:08.016Z,6.28
2023-01-11T01:37:07.976Z,6.19
2023-01-11T01:38:07.979Z,6.19
2023-01-11T01:39:07.989Z,6.18
2023-01-11T01:40:07.939Z,6.31
2023-01-11T01:41:07.984Z,6.24
2023-01-11T01:42:07.839Z,6.15
2023-01-11T01:43:08.045Z,6.25
2023-01-11T01:44:08.067Z,6.21
2023-01-11T01:45:07.941Z,6.27
2023-01-11T01:46:07.880Z,6.28
2023-01-11T01:47:07.839Z,6.32
2023-01-11T01:48:07.953Z,6.35
2023-01-11T01:49:07.860Z,6.37
2023-01-11T01:50:07.971Z,6.40
2023-01-11T01:51:07.891Z,6.40
2023-01-11T01:52:08.284Z,6.42
2023-01-11T01:53:07.915Z,6.38
2023-01-11T01:54:07.850Z,6.40
2023-01-11T01:55:07.907Z,6.37
2023-01-11T01:56:07.832Z,6.35
2023-01-11T01:57:08.020Z,6.34
2023-01-11T01:58:07.933Z,6.47
2023-01-11T01:59:07.903Z,6.45
2023-01-11T02:00:07.794Z,6.35
2023-01-11T02:01:08.330Z,6.42
2023-01-11T02:02:08.544Z,6.45
2023-01-11T02:03:07.914Z,6.49
2023-01-11T02:04:07.891Z,6.50
2023-01-11T02:05:07.719Z,6.43
2023-01-11T02:06:07.867Z,6.43
2023-01-11T02:07:07.864Z,6.45
2023-01-11T02:08:08.176Z,6.45
2023-01-11T02:09:07.690Z,6.46
2023-01-11T02:10:07.701Z,6.49
2023-01-11T02:11:07.696Z,6.40
2023-01-11T02:12:07.698Z,6.45
2023-01-11T02:13:08.001Z,6.47
2023-01-11T02:14:07.909Z,6.47
2023-01-11T02:15:07.703Z,6.40
2023-01-11T02:16:08.270Z,6.47
2023-01-11T02:17:07.757Z,6.46
2023-01-11T02:18:07.648Z,6.43
2023-01-11T02:19:07.775Z,6.40
2023-01-11T02:20:07.774Z,6.42
2023-01-11T02:21:07.636Z,6.52
2023-01-11T02:22:07.612Z,6.38
2023-01-11T02:23:07.668Z,6.40
2023-01-11T02:24:07.617Z,6.38
2023-01-11T02:25:07.853Z,6.37
2023-01-11T02:26:07.854Z,6.47
2023-01-11T02:27:07.608Z,6.45
2023-01-11T02:28:07.636Z,6.37
2023-01-11T02:29:07.560Z,6.42
2023-01-11T02:30:07.549Z,6.35
2023-01-11T02:31:07.651Z,6.42
2023-01-11T02:32:07.585Z,6.34
2023-01-11T02:33:07.562Z,6.38
2023-01-11T02:34:07.556Z,6.37
2023-01-11T02:35:07.594Z,6.38
2023-01-11T02:36:07.547Z,6.40
2023-01-11T02:37:07.944Z,6.38
2023-01-11T02:38:07.513Z,6.46
2023-01-11T02:39:07.497Z,6.42
2023-01-11T02:40:07.633Z,6.49
2023-01-11T02:41:07.916Z,6.45
2023-01-11T02:42:07.836Z,6.47
2023-01-11T02:43:07.487Z,6.55
2023-01-11T02:44:07.617Z,6.56
2023-01-11T02:45:07.560Z,6.35
2023-01-11T02:46:07.636Z,6.49
2023-01-11T02:47:07.491Z,6.43
2023-01-11T02:48:07.515Z,6.37
2023-01-11T02:49:07.459Z,6.45
2023-01-11T02:50:07.483Z,6.47
2023-01-11T02:51:07.497Z,6.53
2023-01-11T02:52:07.493Z,6.46
2023-01-11T02:53:07.612Z,6.50
2023-01-11T02:54:07.481Z,6.45
2023-01-11T02:55:07.423Z,6.50
2023-01-11T02:56:07.380Z,6.55
2023-01-11T02:57:07.495Z,6.50
2023-01-11T02:58:07.421Z,6.56
2023-01-11T02:59:07.483Z,6.53
2023-01-11T03:00:07.445Z,6.52
2023-01-11T03:01:07.835Z,6.56
2023-01-11T03:02:07.387Z,6.52
2023-01-11T03:03:07.434Z,6.50
2023-01-11T03:04:07.389Z,6.61
2023-01-11T03:05:07.545Z,6.53
2023-01-11T03:06:07.370Z,6.65
2023-01-11T03:07:07.315Z,6.46
2023-01-11T03:08:07.317Z,6.49
2023-01-11T03:09:07.360Z,6.56
2023-01-11T03:10:07.355Z,6.60
2023-01-11T03:11:07.306Z,6.53
2023-01-11T03:12:07.277Z,6.52
2023-01-11T03:13:07.295Z,6.49
2023-01-11T03:14:07.457Z,6.63
2023-01-11T03:15:07.343Z,6.53
2023-01-11T03:16:07.276Z,6.61
2023-01-11T03:17:07.356Z,6.64
2023-01-11T03:18:07.329Z,6.57
2023-01-11T03:19:07.260Z,6.46
2023-01-11T03:20:07.476Z,6.57
2023-01-11T03:21:07.241Z,6.60
2023-01-11T03:22:07.291Z,6.56
2023-01-11T03:23:07.205Z,6.70
2023-01-11T03:24:07.406Z,6.60
2023-01-11T03:25:07.194Z,6.38
2023-01-11T03:26:07.311Z,6.60
2023-01-11T03:27:07.264Z,6.61
2023-01-11T03:28:07.226Z,6.57
2023-01-11T03:29:07.356Z,6.57
2023-01-11T03:30:07.196Z,6.47
2023-01-11T03:31:07.323Z,6.60
2023-01-11T03:32:07.173Z,6.60
2023-01-11T03:33:07.110Z,6.56
2023-01-11T03:34:07.159Z,6.56
2023-01-11T03:35:07.112Z,6.56
2023-01-11T03:36:07.158Z,6.65
2023-01-11T03:37:07.361Z,6.63
2023-01-11T03:38:07.251Z,6.74
2023-01-11T03:39:07.176Z,6.73
2023-01-11T03:40:07.127Z,6.71
2023-01-11T03:41:07.088Z,6.60
2023-01-11T03:42:07.209Z,6.64
2023-01-11T03:43:07.164Z,6.63
2023-01-11T03:44:07.566Z,6.64
2023-01-11T03:45:07.114Z,6.78
2023-01-11T03:46:07.117Z,6.70
2023-01-11T03:47:07.118Z,6.78
2023-01-11T03:48:07.223Z,6.78
2023-01-11T03:49:07.261Z,6.67
2023-01-11T03:50:07.063Z,6.68
2023-01-11T03:51:07.200Z,6.78
2023-01-11T03:52:07.088Z,6.79
2023-01-11T03:53:07.083Z,6.73
2023-01-11T03:54:06.999Z,6.73
2023-01-11T03:55:07.100Z,6.75
2023-01-11T03:56:07.075Z,6.88
2023-01-11T03:57:07.000Z,6.73
2023-01-11T03:58:07.047Z,6.82
2023-01-11T03:59:07.065Z,6.79
2023-01-11T04:00:06.969Z,6.85
2023-01-11T04:01:07.001Z,6.78
2023-01-11T04:02:06.962Z,6.73
2023-01-11T04:03:07.856Z,6.89
2023-01-11T04:04:07.012Z,6.86
2023-01-11T04:05:06.952Z,6.75
2023-01-11T04:06:07.401Z,6.86
2023-01-11T04:07:06.950Z,6.82
2023-01-11T04:08:07.286Z,6.79
2023-01-11T04:09:06.905Z,6.85
2023-01-11T04:10:06.930Z,6.78
2023-01-11T04:11:06.954Z,6.81
2023-01-11T04:12:06.895Z,6.85
2023-01-11T04:13:07.843Z,6.86
2023-01-11T04:14:07.150Z,6.85
2023-01-11T04:15:06.880Z,6.75
2023-01-11T04:16:06.933Z,6.86
2023-01-11T04:17:06.857Z,6.83
2023-01-11T04:18:07.004Z,6.93
2023-01-11T04:19:07.259Z,6.78
2023-01-11T04:20:06.852Z,6.92
2023-01-11T04:21:07.057Z,6.89
2023-01-11T04:22:06.840Z,6.96
2023-01-11T04:23:07.097Z,6.97
2023-01-11T04:24:06.957Z,6.91
2023-01-11T04:25:06.833Z,6.96
2023-01-11T04:26:06.821Z,6.99
2023-01-11T04:27:06.850Z,6.99
2023-01-11T04:28:06.921Z,7.04
2023-01-11T04:29:06.802Z,7.10
2023-01-11T04:30:06.798Z,6.91
2023-01-11T04:31:06.885Z,7.04
2023-01-11T04:32:06.796Z,7.04
2023-01-11T04:33:06.780Z,7.03
2023-01-11T04:34:06.759Z,7.03
2023-01-11T04:35:06.749Z,7.04
2023-01-11T04:36:06.819Z,7.06
2023-01-11T04:37:06.747Z,7.19
2023-01-11T04:38:06.771Z,7.06
2023-01-11T04:39:06.776Z,7.10
2023-01-11T04:40:06.719Z,7.04
2023-01-11T04:41:06.690Z,7.11
2023-01-11T04:42:07.567Z,7.10
2023-01-11T04:43:06.816Z,7.21
2023-01-11T04:44:06.762Z,7.11
2023-01-11T04:45:06.706Z,7.15
2023-01-11T04:46:07.036Z,7.08
2023-01-11T04:47:06.825Z,7.11
2023-01-11T04:48:06.725Z,7.10
2023-01-11T04:49:06.667Z,7.13
2023-01-11T04:50:07.140Z,7.15
2023-01-11T04:51:06.788Z,7.08
2023-01-11T04:52:06.850Z,7.15
2023-01-11T04:53:06.656Z,7.19
2023-01-11T04:54:07.026Z,7.22
2023-01-11T04:55:06.856Z,7.21
2023-01-11T04:56:06.651Z,7.28
2023-01-11T04:57:06.599Z,7.13
2023-01-11T04:58:07.071Z,7.13
2023-01-11T04:59:06.720Z,7.19
2023-01-11T05:00:07.094Z,7.15
2023-01-11T05:01:06.671Z,7.25
2023-01-11T05:02:06.590Z,7.22
2023-01-11T05:03:06.916Z,7.29
2023-01-11T05:04:06.737Z,7.29
2023-01-11T05:05:06.545Z,7.33
2023-01-11T05:06:06.612Z,7.31
2023-01-11T05:07:06.665Z,7.22
2023-01-11T05:08:06.859Z,7.28
2023-01-11T05:09:06.598Z,7.25
2023-01-11T05:10:06.540Z,7.33
2023-01-11T05:11:06.615Z,7.37
2023-01-11T05:12:06.618Z,7.36
2023-01-11T05:13:06.577Z,7.36
2023-01-11T05:14:06.563Z,7.29
2023-01-11T05:15:06.503Z,7.37
2023-01-11T05:16:06.545Z,7.46
2023-01-11T05:17:06.513Z,7.42
2023-01-11T05:18:06.678Z,7.36
2023-01-11T05:19:06.482Z,7.39
2023-01-11T05:20:06.523Z,7.31
2023-01-11T05:21:06.966Z,7.36
2023-01-11T05:22:06.577Z,7.37
2023-01-11T05:23:06.455Z,7.31
2023-01-11T05:24:06.521Z,7.33
2023-01-11T05:25:06.772Z,7.42
2023-01-11T05:26:06.434Z,7.29
2023-01-11T05:27:06.424Z,7.31
2023-01-11T05:28:06.468Z,7.28
2023-01-11T05:29:06.567Z,7.33
2023-01-11T05:30:06.541Z,7.28
2023-01-11T05:31:06.385Z,7.31
2023-01-11T05:32:06.438Z,7.33
2023-01-11T05:33:06.396Z,7.34
2023-01-11T05:34:06.468Z,7.39
2023-01-11T05:35:06.374Z,7.33
2023-01-11T05:36:06.369Z,7.36
2023-01-11T05:37:06.724Z,7.39
2023-01-11T05:38:06.362Z,7.37
2023-01-11T05:39:06.366Z,7.43
2023-01-11T05:40:06.453Z,7.49
2023-01-11T05:41:06.342Z,7.36
2023-01-11T05:42:06.532Z,7.42
2023-01-11T05:43:06.345Z,7.42
2023-01-11T05:44:06.357Z,7.44
2023-01-11T05:45:06.484Z,7.49
2023-01-11T05:46:06.388Z,7.50
2023-01-11T05:47:06.346Z,7.55
2023-01-11T05:48:06.371Z,7.54
2023-01-11T05:49:06.268Z,7.57
2023-01-11T05:50:06.242Z,7.54
2023-01-11T05:51:06.318Z,7.47
2023-01-11T05:52:06.308Z,7.50
2023-01-11T05:53:06.287Z,7.50
2023-01-11T05:54:06.352Z,7.49
2023-01-11T05:55:06.480Z,7.57
2023-01-11T05:56:06.263Z,7.58
2023-01-11T05:57:06.281Z,7.50
2023-01-11T05:58:06.266Z,7.62
2023-01-11T05:59:06.248Z,7.49
2023-01-11T06:00:06.241Z,7.64
2023-01-11T06:01:06.221Z,7.54
2023-01-11T06:02:06.332Z,7.58
2023-01-11T06:03:06.317Z,7.50
2023-01-11T06:04:06.347Z,7.61
2023-01-11T06:05:06.251Z,7.58
2023-01-11T06:06:06.164Z,7.52
2023-01-11T06:07:06.175Z,7.52
2023-01-11T06:08:06.191Z,7.54
2023-01-11T06:09:06.309Z,7.64
2023-01-11T06:10:06.124Z,7.57
2023-01-11T06:11:06.263Z,7.54
2023-01-11T06:12:06.202Z,7.62
2023-01-11T06:13:06.191Z,7.60
2023-01-11T06:14:06.215Z,7.54
2023-01-11T06:15:06.142Z,7.52
2023-01-11T06:16:06.156Z,7.58
2023-01-11T06:17:06.699Z,7.50
2023-01-11T06:18:06.400Z,7.61
2023-01-11T06:19:06.282Z,7.62
2023-01-11T06:20:06.124Z,7.69
2023-01-11T06:21:06.085Z,7.73
2023-01-11T06:22:06.638Z,7.60
2023-01-11T06:23:06.060Z,7.69
2023-01-11T06:24:06.273Z,7.69
2023-01-11T06:25:06.028Z,7.73
2023-01-11T06:26:06.064Z,7.61
2023-01-11T06:27:06.176Z,7.64
2023-01-11T06:28:06.202Z,7.69
2023-01-11T06:29:06.023Z,7.74
2023-01-11T06:30:06.067Z,7.78
2023-01-11T06:31:06.199Z,7.77
2023-01-11T06:32:06.036Z,7.66
2023-01-11T06:33:05.980Z,7.73
2023-01-11T06:34:06.198Z,7.73
2023-01-11T06:35:06.023Z,7.69
2023-01-11T06:36:06.002Z,7.61
2023-01-11T06:37:05.960Z,7.64
2023-01-11T06:38:06.068Z,7.66
2023-01-11T06:39:06.461Z,7.66
2023-01-11T06:40:05.953Z,7.76
2023-01-11T06:41:06.431Z,7.76
2023-01-11T06:42:06.038Z,7.68
2023-01-11T06:43:05.931Z,7.62
2023-01-11T06:44:06.005Z,7.64
2023-01-11T06:45:06.160Z,7.76
2023-01-11T06:46:06.147Z,7.62
2023-01-11T06:47:06.119Z,7.66
2023-01-11T06:48:05.928Z,7.73
2023-01-11T06:49:06.017Z,7.73
2023-01-11T06:50:05.986Z,7.62
2023-01-11T06:51:05.995Z,7.61
2023-01-11T06:52:05.953Z,7.61
2023-01-11T06:53:05.871Z,7.64
2023-01-11T06:54:05.892Z,7.57
2023-01-11T06:55:05.898Z,7.52
2023-01-11T06:56:05.969Z,7.55
2023-01-11T06:57:06.379Z,7.58
2023-01-11T06:58:06.141Z,7.50
2023-01-11T06:59:06.179Z,7.49
2023-01-11T07:00:06.396Z,7.43
2023-01-11T07:01:05.968Z,7.42
2023-01-11T07:02:05.877Z,7.46
2023-01-11T07:03:05.819Z,7.42
2023-01-11T07:04:05.838Z,7.28
2023-01-11T07:05:05.901Z,7.36
2023-01-11T07:06:05.877Z,7.44
2023-01-11T07:07:06.220Z,7.34
2023-01-11T07:08:05.806Z,7.37
2023-01-11T07:09:05.805Z,7.43
2023-01-11T07:10:05.986Z,7.37
2023-01-11T07:11:05.987Z,7.28
2023-01-11T07:12:05.775Z,7.33
2023-01-11T07:13:05.807Z,7.25
2023-01-11T07:14:05.890Z,7.31
2023-01-11T07:15:06.018Z,7.34
2023-01-11T07:16:05.759Z,7.28
2023-01-11T07:17:05.743Z,7.28
2023-01-11T07:18:05.729Z,7.25
2023-01-11T07:19:05.838Z,7.31
2023-01-11T07:20:05.712Z,7.31
2023-01-11T07:21:05.736Z,7.33
2023-01-11T07:22:05.746Z,7.40
2023-01-11T07:23:05.694Z,7.36
2023-01-11T07:24:05.685Z,7.42
2023-01-11T07:25:05.658Z,7.29
2023-01-11T07:26:06.267Z,7.31
2023-01-11T07:27:05.681Z,7.40
2023-01-11T07:28:05.656Z,7.36
2023-01-11T07:29:05.853Z,7.37
2023-01-11T07:30:05.644Z,7.37
2023-01-11T07:31:05.991Z,7.42
2023-01-11T07:32:05.653Z,7.42
2023-01-11T07:33:05.777Z,7.42
2023-01-11T07:34:05.726Z,7.33
2023-01-11T07:35:05.639Z,7.46
2023-01-11T07:36:05.647Z,7.47
2023-01-11T07:37:05.616Z,7.36
2023-01-11T07:38:05.625Z,7.37
2023-01-11T07:39:05.728Z,7.47
2023-01-11T07:40:05.640Z,7.42
2023-01-11T07:41:05.587Z,7.39
2023-01-11T07:42:05.627Z,7.43
2023-01-11T07:43:05.813Z,7.39
2023-01-11T07:44:05.570Z,7.46
2023-01-11T07:45:05.936Z,7.50
2023-01-11T07:46:05.706Z,7.47
2023-01-11T07:47:05.569Z,7.52
2023-01-11T07:48:05.537Z,7.60
2023-01-11T07:49:05.579Z,7.50
2023-01-11T07:50:05.525Z,7.49
2023-01-11T07:51:05.511Z,7.50
2023-01-11T07:52:05.531Z,7.54
2023-01-11T07:53:12.605Z,7.50
2023-01-11T07:54:05.471Z,7.52
2023-01-11T07:55:05.566Z,7.52
2023-01-11T07:56:05.629Z,7.54
2023-01-11T07:57:05.459Z,7.52
2023-01-11T07:58:05.477Z,7.62
2023-01-11T07:59:05.457Z,7.57
2023-01-11T08:00:05.517Z,7.61
2023-01-11T08:01:05.501Z,7.61
2023-01-11T08:02:05.570Z,7.64
2023-01-11T08:03:05.625Z,7.61
2023-01-11T08:04:05.429Z,7.52
2023-01-11T08:05:05.429Z,7.73
2023-01-11T08:06:05.453Z,7.62
2023-01-11T08:07:05.470Z,7.55
2023-01-11T08:08:05.480Z,7.71
2023-01-11T08:09:05.470Z,7.66
2023-01-11T08:10:05.437Z,7.64
2023-01-11T08:11:05.686Z,7.62
2023-01-11T08:12:05.471Z,7.68
2023-01-11T08:13:05.638Z,7.64
2023-01-11T08:14:05.464Z,7.68
2023-01-11T08:15:05.966Z,7.71
2023-01-11T08:16:05.532Z,7.73
2023-01-11T08:17:05.744Z,7.61
2023-01-11T08:18:05.351Z,7.74
2023-01-11T08:19:05.662Z,7.73
2023-01-11T08:20:05.319Z,7.77
2023-01-11T08:21:05.366Z,7.64
2023-01-11T08:22:05.508Z,7.76
2023-01-11T08:23:05.394Z,7.71
2023-01-11T08:24:05.411Z,7.88
2023-01-11T08:25:05.285Z,7.80
2023-01-11T08:26:05.395Z,7.78
2023-01-11T08:27:05.413Z,7.83
2023-01-11T08:28:05.771Z,7.83
2023-01-11T08:29:05.251Z,7.77
2023-01-11T08:30:05.298Z,7.69
2023-01-11T08:31:05.337Z,7.76
2023-01-11T08:32:05.279Z,7.83
2023-01-11T08:33:05.453Z,7.80
2023-01-11T08:34:05.361Z,7.71
2023-01-11T08:35:05.378Z,7.84
2023-01-11T08:36:05.390Z,7.73
2023-01-11T08:37:05.483Z,7.81
2023-01-11T08:38:05.307Z,7.81
2023-01-11T08:39:05.289Z,7.87
2023-01-11T08:40:05.234Z,7.81
2023-01-11T08:41:05.243Z,7.78
2023-01-11T08:42:05.378Z,7.86
2023-01-11T08:43:05.181Z,7.80
2023-01-11T08:44:05.199Z,7.88
2023-01-11T08:45:05.183Z,7.86
2023-01-11T08:46:05.554Z,7.84
2023-01-11T08:47:05.212Z,7.94
2023-01-11T08:48:05.172Z,7.86
2023-01-11T08:49:05.157Z,7.91
2023-01-11T08:50:05.152Z,7.94
2023-01-11T08:51:05.168Z,7.87
2023-01-11T08:52:05.171Z,7.81
2023-01-11T08:53:05.108Z,7.94
2023-01-11T08:54:05.177Z,7.91
2023-01-11T08:55:05.139Z,7.84
2023-01-11T08:56:05.095Z,7.88
2023-01-11T08:57:05.084Z,7.87
2023-01-11T08:58:05.104Z,7.94
2023-01-11T08:59:05.117Z,7.98
2023-01-11T09:00:05.136Z,7.94
2023-01-11T09:01:05.062Z,7.99
2023-01-11T09:02:05.061Z,7.95
2023-01-11T09:03:05.427Z,7.98
2023-01-11T09:04:15.794Z,8.04
2023-01-11T09:05:06.542Z,7.96
2023-01-11T09:06:05.126Z,8.02
2023-01-11T09:07:05.103Z,8.05
2023-01-11T09:08:05.108Z,8.10
2023-01-11T09:09:05.007Z,8.01
2023-01-11T09:10:05.182Z,7.92
2023-01-11T09:11:05.027Z,8.06
2023-01-11T09:12:05.900Z,8.02
2023-01-11T09:13:05.040Z,7.95
2023-01-11T09:14:05.077Z,7.99
2023-01-11T09:15:05.036Z,8.20
2023-01-11T09:16:05.088Z,8.21
2023-01-11T09:17:04.974Z,8.10
2023-01-11T09:18:05.032Z,8.16
2023-01-11T09:19:04.954Z,8.17
2023-01-11T09:20:05.236Z,8.21
2023-01-11T09:21:05.004Z,8.12
2023-01-11T09:22:05.051Z,8.19
2023-01-11T09:23:04.970Z,8.02
2023-01-11T09:24:04.916Z,8.10
2023-01-11T09:25:05.208Z,8.14
2023-01-11T09:26:04.945Z,8.17
2023-01-11T09:27:05.056Z,8.21
2023-01-11T09:28:04.984Z,8.09
2023-01-11T09:29:05.112Z,8.19
2023-01-11T09:30:05.598Z,8.14
2023-01-11T09:31:04.942Z,8.16
2023-01-11T09:32:04.907Z,8.26
2023-01-11T09:33:04.979Z,8.16
2023-01-11T09:34:04.949Z,8.14
2023-01-11T09:35:04.891Z,8.13
2023-01-11T09:36:04.920Z,8.21
2023-01-11T09:37:04.874Z,8.21
2023-01-11T09:38:04.877Z,8.28
2023-01-11T09:39:04.839Z,8.31
2023-01-11T09:40:04.990Z,8.26
2023-01-11T09:41:04.842Z,8.31
2023-01-11T09:42:05.228Z,8.29
2023-01-11T09:43:04.836Z,8.16
2023-01-11T09:44:04.931Z,8.21
2023-01-11T09:45:04.836Z,8.23
2023-01-11T09:46:07.360Z,8.31
2023-01-11T09:47:05.180Z,8.21
2023-01-11T09:48:04.804Z,8.19
2023-01-11T09:49:04.775Z,8.35
2023-01-11T09:50:04.757Z,8.37
2023-01-11T09:51:04.858Z,8.35
2023-01-11T09:52:04.758Z,8.26
2023-01-11T09:53:04.775Z,8.38
2023-01-11T09:54:04.839Z,8.31
2023-01-11T09:55:04.736Z,8.34
2023-01-11T09:56:04.788Z,8.34
2023-01-11T09:57:04.803Z,8.35
2023-01-11T09:58:04.741Z,8.47
2023-01-11T09:59:04.873Z,8.41
2023-01-11T10:00:04.746Z,8.44
2023-01-11T10:01:04.779Z,8.42
2023-01-11T10:02:05.223Z,8.46
2023-01-11T10:03:04.666Z,8.41
2023-01-11T10:04:04.713Z,8.41
2023-01-11T10:05:04.799Z,8.37
2023-01-11T10:06:04.664Z,8.44
2023-01-11T10:07:04.673Z,8.46
2023-01-11T10:18:22.291Z,8.42
2023-01-11T10:18:31.356Z,8.44
2023-01-11T10:18:31.764Z,8.35
2023-01-11T10:18:34.072Z,8.46
2023-01-11T10:18:40.118Z,8.52
2023-01-11T10:19:33.305Z,8.44
2023-01-11T10:20:05.723Z,8.32
2023-01-11T10:21:04.543Z,8.46
2023-01-11T10:22:04.627Z,8.52
2023-01-11T10:23:04.603Z,8.47
2023-01-11T10:24:04.535Z,8.37
2023-01-11T10:25:04.581Z,8.53
2023-01-11T10:26:04.506Z,8.46
2023-01-11T10:27:04.632Z,8.37
2023-01-11T10:28:04.565Z,8.32
2023-01-11T10:29:04.570Z,8.37
2023-01-11T10:30:04.668Z,8.47
2023-01-11T10:31:04.537Z,8.46
2023-01-11T10:32:04.505Z,8.47
2023-01-11T10:33:04.459Z,8.46
2023-01-11T10:34:04.430Z,8.44
2023-01-11T10:35:04.518Z,8.42
2023-01-11T10:36:04.471Z,8.42
2023-01-11T10:37:04.624Z,8.47
2023-01-11T10:38:04.420Z,8.46
2023-01-11T10:39:04.443Z,8.50
2023-01-11T10:40:04.557Z,8.50
2023-01-11T10:41:04.484Z,8.55
2023-01-11T10:42:04.580Z,8.53
2023-01-11T10:43:04.391Z,8.47
2023-01-11T10:44:04.385Z,8.57
2023-01-11T10:45:04.410Z,8.62
2023-01-11T10:46:04.520Z,8.53
2023-01-11T10:47:04.566Z,8.56
2023-01-11T10:48:04.411Z,8.57
2023-01-11T10:49:04.401Z,8.42
2023-01-11T10:50:06.236Z,8.57
2023-01-11T10:51:04.358Z,8.62
2023-01-11T10:52:04.297Z,8.56
2023-01-11T10:53:04.447Z,8.50
2023-01-11T10:55:04.316Z,8.56
2023-01-11T10:56:04.318Z,8.47
2023-01-11T10:57:05.698Z,8.55
2023-01-11T10:58:04.565Z,8.60
2023-01-11T10:59:04.330Z,8.62
2023-01-11T11:00:04.295Z,8.67
2023-01-11T11:01:04.313Z,8.68
2023-01-11T11:02:04.365Z,8.68
2023-01-11T11:03:04.239Z,8.71
2023-01-11T11:04:04.342Z,8.71
2023-01-11T11:05:04.298Z,8.55
2023-01-11T11:06:04.273Z,8.65
2023-01-11T11:07:04.297Z,8.70
2023-01-11T11:08:04.284Z,8.59
2023-01-11T11:09:04.270Z,8.59
2023-01-11T11:10:04.274Z,8.67
2023-01-11T11:11:04.375Z,8.65
2023-01-11T11:12:04.216Z,8.70
2023-01-11T11:13:04.203Z,8.74
2023-01-11T11:14:04.198Z,8.67
2023-01-11T11:15:04.166Z,8.60
2023-01-11T11:16:04.374Z,8.71
2023-01-11T11:17:04.250Z,8.77
2023-01-11T11:18:04.159Z,8.62
2023-01-11T11:19:04.186Z,8.71
2023-01-11T11:20:04.228Z,8.60
2023-01-11T11:21:04.124Z,8.68
2023-01-11T11:22:04.161Z,8.77
2023-01-11T11:23:04.132Z,8.70
2023-01-11T11:24:04.221Z,8.65
2023-01-11T11:25:04.076Z,8.74
2023-01-11T11:26:04.236Z,8.80
2023-01-11T11:27:04.310Z,8.72
2023-01-11T11:28:04.124Z,8.72
2023-01-11T11:29:04.114Z,8.72
2023-01-11T11:30:04.085Z,8.77
2023-01-11T11:31:04.144Z,8.65
2023-01-11T11:32:04.113Z,8.72
2023-01-11T11:33:04.032Z,8.75
2023-01-11T11:34:04.063Z,8.78
2023-01-11T11:35:04.059Z,8.68
2023-01-11T11:36:04.126Z,8.68
2023-01-11T11:37:04.162Z,8.74
2023-01-11T11:38:04.044Z,8.78
2023-01-11T11:39:04.063Z,8.70
2023-01-11T11:40:04.058Z,8.81
2023-01-11T11:41:04.020Z,8.63
2023-01-11T11:42:03.998Z,8.71
2023-01-11T11:43:03.996Z,8.75
2023-01-11T11:44:03.965Z,8.74
2023-01-11T11:45:03.941Z,8.68
2023-01-11T11:46:04.542Z,8.72
2023-01-11T11:47:03.955Z,8.74
2023-01-11T11:48:03.960Z,8.70
2023-01-11T11:49:03.964Z,8.78
2023-01-11T11:50:05.040Z,8.74
2023-01-11T11:51:03.917Z,8.77
2023-01-11T11:52:04.121Z,8.72
2023-01-11T11:53:03.902Z,8.74
2023-01-11T11:54:03.899Z,8.75
2023-01-11T11:55:03.953Z,8.72
2023-01-11T11:56:04.201Z,8.67
2023-01-11T11:57:03.888Z,8.70
2023-01-11T11:58:03.905Z,8.88
2023-01-11T11:59:03.883Z,8.90
2023-01-11T12:00:03.912Z,8.75
2023-01-11T12:01:03.844Z,8.80
2023-01-11T12:02:03.919Z,8.77
2023-01-11T12:03:03.854Z,8.77
2023-01-11T12:04:03.832Z,8.77
2023-01-11T12:05:03.936Z,8.81
2023-01-11T12:06:03.831Z,8.80
2023-01-11T12:07:03.883Z,8.81
2023-01-11T12:08:03.860Z,8.75
2023-01-11T12:09:03.831Z,8.83
2023-01-11T12:10:03.809Z,8.85
2023-01-11T12:11:03.812Z,8.83
2023-01-11T12:12:03.788Z,8.75
2023-01-11T12:13:03.793Z,8.88
2023-01-11T12:14:03.818Z,8.92
2023-01-11T12:15:03.763Z,8.86
2023-01-11T12:16:03.755Z,8.78
2023-01-11T12:17:03.831Z,8.86
2023-01-11T12:18:04.588Z,8.81
2023-01-11T12:19:03.774Z,8.80
2023-01-11T12:20:03.749Z,8.93
2023-01-11T12:21:03.896Z,8.77
2023-01-11T12:22:03.788Z,8.75
2023-01-11T12:23:03.753Z,8.80
2023-01-11T12:24:03.752Z,8.81
2023-01-11T12:25:03.793Z,8.88
2023-01-11T12:26:03.882Z,8.89
2023-01-11T12:27:03.805Z,8.88
2023-01-11T12:28:03.846Z,8.89
2023-01-11T12:29:03.659Z,8.90
2023-01-11T12:30:03.654Z,8.90
2023-01-11T12:31:03.834Z,8.89
2023-01-11T12:32:03.676Z,8.83
2023-01-11T12:33:03.619Z,8.89
2023-01-11T12:34:03.673Z,8.78
2023-01-11T12:35:03.605Z,8.78
2023-01-11T12:36:04.207Z,8.85
2023-01-11T12:37:03.652Z,8.93
2023-01-11T12:38:03.669Z,8.88
2023-01-11T12:39:03.685Z,8.74
2023-01-11T12:40:03.619Z,8.81
2023-01-11T12:41:03.588Z,8.89
2023-01-11T12:42:03.590Z,8.88
2023-01-11T12:43:03.664Z,8.90
2023-01-11T12:44:03.588Z,8.86
2023-01-11T12:45:03.594Z,8.89
2023-01-11T12:46:03.633Z,8.89
2023-01-11T12:47:03.602Z,8.86
2023-01-11T12:48:03.527Z,8.86
2023-01-11T12:49:03.647Z,8.89
2023-01-11T12:50:03.519Z,8.86
2023-01-11T12:51:03.599Z,8.86
2023-01-11T12:52:03.535Z,8.88
2023-01-11T12:53:03.517Z,8.93
2023-01-11T12:54:03.498Z,8.85
2023-01-11T12:55:03.579Z,8.80
2023-01-11T12:56:03.581Z,8.92
2023-01-11T12:57:03.503Z,8.83
2023-01-11T12:58:03.521Z,8.90
2023-01-11T12:59:03.500Z,8.81
2023-01-11T13:00:03.536Z,8.86
2023-01-11T13:01:04.072Z,8.88
2023-01-11T13:02:03.513Z,8.78
2023-01-11T13:03:03.625Z,8.83
2023-01-11T13:04:03.462Z,8.77
2023-01-11T13:05:03.434Z,8.81
2023-01-11T13:06:03.436Z,8.83
2023-01-11T13:07:03.410Z,8.90
2023-01-11T13:08:03.390Z,8.80
2023-01-11T13:09:03.424Z,8.90
2023-01-11T13:10:03.401Z,8.83
2023-01-11T13:11:03.422Z,8.83
2023-01-11T13:12:03.431Z,8.93
2023-01-11T13:13:03.349Z,8.86
2023-01-11T13:14:03.418Z,8.80
2023-01-11T13:15:03.348Z,8.80
2023-01-11T13:16:03.385Z,8.89
2023-01-11T13:17:03.467Z,8.78
2023-01-11T13:18:03.334Z,8.90
2023-01-11T13:19:03.314Z,8.86
2023-01-11T13:20:03.353Z,8.85
2023-01-11T13:21:04.387Z,8.96
2023-01-11T13:22:03.445Z,8.92
2023-01-11T13:23:03.272Z,8.90
2023-01-11T13:24:03.292Z,8.85
2023-01-11T13:25:03.327Z,8.78